createdAt,value
2017-12-23T00:02:11.442Z,8.03
2017-12-23T00:04:39.864Z,11.23
2017-12-23T00:07:08.170Z,12.70
2017-12-23T00:09:36.519Z,9.70
2017-12-23T00:12:04.768Z,8.27
2017-12-23T00:14:33.052Z,12.20
2017-12-23T00:17:01.305Z,9.40
2017-12-23T00:19:29.567Z,11.67
2017-12-23T00:21:57.853Z,10.07
2017-12-23T00:24:26.225Z,7.90
2017-12-23T00:26:55.351Z,10.03
2017-12-23T00:29:23.637Z,9.83
2017-12-23T00:31:51.911Z,9.97
2017-12-23T00:34:31.009Z,11.33
2017-12-23T00:36:59.275Z,6.40
2017-12-23T00:39:27.528Z,12.10
2017-12-23T00:41:57.300Z,8.13
2017-12-23T00:44:25.564Z,8.10
2017-12-23T00:46:53.823Z,11.70
2017-12-23T00:49:22.137Z,14.50
2017-12-23T00:51:50.389Z,12.33
2017-12-23T00:54:18.711Z,7.10
2017-12-23T00:56:46.962Z,7.57
2017-12-23T00:59:15.232Z,13.17
2017-12-23T01:01:43.487Z,9.83
2017-12-23T01:04:12.513Z,14.23
2017-12-23T01:06:40.815Z,11.20
2017-12-23T01:09:09.076Z,13.67
2017-12-23T01:11:37.334Z,9.50
2017-12-23T01:14:05.655Z,11.03
2017-12-23T01:16:33.892Z,8.70
2017-12-23T01:19:02.193Z,9.90
2017-12-23T01:21:30.459Z,8.93
2017-12-23T01:23:58.773Z,8.60
2017-12-23T01:26:27.865Z,12.27
2017-12-23T01:28:56.125Z,10.70
2017-12-23T01:31:24.396Z,9.97
2017-12-23T01:33:52.651Z,11.33
2017-12-23T01:36:20.946Z,7.67
2017-12-23T01:38:49.252Z,10.10
2017-12-23T01:41:17.547Z,7.13
2017-12-23T01:43:45.917Z,8.10
2017-12-23T01:46:14.208Z,14.23
2017-12-23T01:48:44.006Z,5.57
2017-12-23T01:51:12.281Z,7.77
2017-12-23T01:53:40.669Z,7.23
2017-12-23T01:56:08.919Z,5.87
2017-12-23T01:58:37.180Z,14.17
2017-12-23T02:01:05.465Z,10.10
2017-12-23T02:03:33.717Z,11.67
2017-12-23T02:06:01.992Z,10.70
2017-12-23T02:08:30.261Z,7.50
2017-12-23T02:10:59.347Z,13.33
2017-12-23T02:13:28.396Z,13.00
2017-12-23T02:15:56.660Z,11.50
2017-12-23T02:18:24.967Z,5.57
2017-12-23T02:20:53.216Z,12.20
2017-12-23T02:23:21.511Z,10.63
2017-12-23T02:25:49.901Z,9.53
2017-12-23T02:28:18.163Z,7.13
2017-12-23T02:30:46.457Z,12.13
2017-12-23T02:33:14.692Z,6.20
2017-12-23T02:35:42.989Z,8.40
2017-12-23T02:38:11.236Z,7.77
2017-12-23T02:40:39.519Z,14.10
2017-12-23T02:43:08.021Z,9.97
2017-12-23T02:45:37.029Z,15.73
2017-12-23T02:48:05.315Z,14.20
2017-12-23T02:50:33.601Z,8.30
2017-12-23T02:53:01.856Z,15.63
2017-12-23T02:55:30.116Z,14.20
2017-12-23T02:57:58.390Z,15.27
2017-12-23T03:00:26.644Z,13.90
2017-12-23T03:02:55.802Z,14.97
2017-12-23T03:05:24.054Z,12.73
2017-12-23T03:07:52.353Z,10.33
2017-12-23T03:10:20.617Z,12.23
2017-12-23T03:12:48.912Z,14.97
2017-12-23T03:15:17.204Z,11.47
2017-12-23T03:17:46.219Z,13.43
2017-12-23T03:20:15.377Z,10.93
2017-12-23T03:22:43.652Z,12.17
2017-12-23T03:25:12.032Z,10.10
2017-12-23T03:27:40.299Z,13.93
2017-12-23T03:30:08.561Z,12.20
2017-12-23T03:32:36.857Z,12.67
2017-12-23T03:35:05.139Z,14.90
2017-12-23T03:37:33.405Z,14.50
2017-12-23T03:40:01.692Z,13.43
2017-12-23T03:42:29.968Z,13.97
2017-12-23T03:44:58.233Z,14.27
2017-12-23T03:47:27.364Z,14.93
2017-12-23T03:49:56.407Z,13.30
2017-12-23T03:52:24.669Z,9.47
2017-12-23T03:54:52.934Z,11.30
2017-12-23T03:57:21.213Z,12.87
2017-12-23T03:59:49.503Z,12.57
2017-12-23T04:02:18.432Z,12.93
2017-12-23T04:04:46.690Z,12.37
2017-12-23T04:07:14.966Z,9.90
2017-12-23T04:09:43.220Z,13.27
2017-12-23T04:12:11.508Z,10.83
2017-12-23T04:14:39.824Z,12.77
2017-12-23T04:17:08.114Z,11.83
2017-12-23T04:19:37.128Z,10.97
2017-12-23T04:22:06.284Z,16.20
2017-12-23T04:24:34.544Z,15.23
2017-12-23T04:27:02.808Z,12.53
2017-12-23T04:29:31.089Z,10.93
2017-12-23T04:31:59.464Z,13.87
2017-12-23T04:34:27.743Z,10.33
2017-12-23T04:36:55.995Z,10.00
2017-12-23T04:39:24.423Z,11.27
2017-12-23T04:41:52.679Z,14.43
2017-12-23T04:44:20.948Z,8.73
2017-12-23T04:46:49.228Z,11.30
2017-12-23T04:49:17.480Z,11.70
2017-12-23T04:51:45.768Z,9.00
2017-12-23T04:54:14.084Z,12.87
2017-12-23T04:56:42.359Z,13.63
2017-12-23T04:59:10.849Z,15.53
2017-12-23T05:01:40.626Z,12.40
2017-12-23T05:04:08.899Z,14.27
2017-12-23T05:06:37.158Z,15.90
2017-12-23T05:09:05.486Z,11.57
2017-12-23T05:11:33.737Z,9.80
2017-12-23T05:14:01.988Z,14.23
2017-12-23T05:16:30.263Z,7.10
2017-12-23T05:18:58.524Z,11.23
2017-12-23T05:21:27.563Z,9.60
2017-12-23T05:23:55.874Z,9.57
2017-12-23T05:26:24.240Z,10.07
2017-12-23T05:28:52.492Z,11.23
2017-12-23T05:31:20.743Z,11.07
2017-12-23T05:33:49.020Z,12.97
2017-12-23T05:36:17.279Z,12.43
2017-12-23T05:38:46.344Z,11.83
2017-12-23T05:41:14.608Z,11.40
2017-12-23T05:43:42.873Z,10.23
2017-12-23T05:46:11.292Z,10.37
2017-12-23T05:48:39.536Z,6.80
2017-12-23T05:51:07.918Z,9.43
2017-12-23T05:53:36.177Z,13.80
2017-12-23T05:56:04.450Z,10.77
2017-12-23T05:58:32.713Z,8.03
2017-12-23T06:01:00.975Z,16.40
2017-12-23T06:03:30.028Z,14.23
2017-12-23T06:05:58.293Z,10.37
2017-12-23T06:08:26.580Z,12.73
2017-12-23T06:10:54.823Z,12.67
2017-12-23T06:13:23.103Z,12.57
2017-12-23T06:15:51.376Z,15.43
2017-12-23T06:18:19.635Z,11.20
2017-12-23T06:20:47.964Z,14.97
2017-12-23T06:23:16.212Z,11.73
2017-12-23T06:25:44.497Z,14.97
2017-12-23T06:28:12.945Z,17.60
2017-12-23T06:30:41.384Z,17.73
2017-12-23T06:33:09.659Z,12.67
2017-12-23T06:35:37.911Z,19.60
2017-12-23T06:38:06.194Z,20.43
2017-12-23T06:40:34.533Z,21.53
2017-12-23T06:43:02.860Z,14.23
2017-12-23T06:45:31.120Z,19.10
2017-12-23T06:47:59.422Z,14.83
2017-12-23T06:50:27.679Z,20.40
2017-12-23T06:52:55.936Z,18.17
2017-12-23T06:55:24.233Z,22.20
2017-12-23T06:57:52.532Z,14.83
2017-12-23T07:00:20.792Z,20.50
2017-12-23T07:02:49.059Z,21.70
2017-12-23T07:05:17.338Z,21.57
2017-12-23T07:07:45.641Z,23.37
2017-12-23T07:10:13.917Z,21.90
2017-12-23T07:12:42.296Z,22.60
2017-12-23T07:15:10.575Z,21.73
2017-12-23T07:17:39.054Z,24.83
2017-12-23T07:20:07.299Z,26.10
2017-12-23T07:22:35.588Z,21.70
2017-12-23T07:25:03.839Z,20.37
2017-12-23T07:27:32.103Z,24.47
2017-12-23T07:30:01.162Z,28.73
2017-12-23T07:32:29.428Z,21.73
2017-12-23T07:34:57.699Z,28.73
2017-12-23T07:37:25.960Z,18.30
2017-12-23T07:39:54.273Z,23.17
2017-12-23T07:42:22.748Z,20.33
2017-12-23T07:44:51.128Z,29.33
2017-12-23T07:47:19.404Z,21.87
2017-12-23T07:49:47.673Z,24.03
2017-12-23T07:52:15.949Z,31.10
2017-12-23T07:54:44.236Z,26.00
2017-12-23T07:57:12.496Z,18.53
2017-12-23T07:59:40.760Z,23.33
2017-12-23T08:02:09.074Z,22.90
2017-12-23T08:04:37.323Z,26.60
2017-12-23T08:07:05.581Z,25.83
2017-12-23T08:09:33.893Z,23.80
2017-12-23T08:12:02.162Z,19.93
2017-12-23T08:14:30.444Z,21.10
2017-12-23T08:16:58.834Z,19.80
2017-12-23T08:19:27.211Z,18.73
2017-12-23T08:21:55.506Z,18.50
2017-12-23T08:24:23.741Z,23.03
2017-12-23T08:26:52.016Z,22.17
2017-12-23T08:29:20.267Z,25.57
2017-12-23T08:31:48.540Z,17.70
2017-12-23T08:34:17.580Z,22.63
2017-12-23T08:36:45.870Z,16.50
2017-12-23T08:39:14.115Z,21.97
2017-12-23T08:41:42.376Z,16.80
2017-12-23T08:44:10.652Z,19.07
2017-12-23T08:46:38.915Z,20.17
2017-12-23T08:49:07.964Z,29.67
2017-12-23T08:51:36.228Z,19.20
2017-12-23T08:54:04.499Z,18.93
2017-12-23T08:56:32.808Z,16.80
2017-12-23T08:59:01.184Z,16.17
2017-12-23T09:01:29.451Z,19.37
2017-12-23T09:03:57.843Z,14.73
2017-12-23T09:06:26.115Z,19.37
2017-12-23T09:08:54.386Z,16.83
2017-12-23T09:11:22.660Z,17.77
2017-12-23T09:13:50.932Z,22.40
2017-12-23T09:16:19.228Z,24.33
2017-12-23T09:18:47.498Z,20.10
2017-12-23T09:21:15.766Z,16.50
2017-12-23T09:23:44.161Z,19.77
2017-12-23T09:26:12.413Z,20.50
2017-12-23T09:28:40.694Z,16.23
2017-12-23T09:31:09.037Z,17.30
2017-12-23T09:33:38.089Z,23.13
2017-12-23T09:36:06.572Z,20.53
2017-12-23T09:38:34.953Z,17.77
2017-12-23T09:41:03.230Z,19.67
2017-12-23T09:43:31.479Z,18.50
2017-12-23T09:45:59.755Z,18.87
2017-12-23T09:48:28.060Z,18.60
2017-12-23T09:50:56.439Z,16.20
2017-12-23T09:53:24.714Z,16.80
2017-12-23T09:55:52.959Z,16.60
2017-12-23T09:58:21.267Z,12.70
2017-12-23T10:00:49.521Z,15.83
2017-12-23T10:03:17.801Z,14.47
2017-12-23T10:05:46.067Z,17.20
2017-12-23T10:08:14.325Z,12.77
2017-12-23T10:10:42.619Z,14.83
2017-12-23T10:13:11.036Z,14.17
2017-12-23T10:15:39.317Z,14.03
2017-12-23T10:18:07.586Z,14.23
2017-12-23T10:20:35.966Z,17.60
2017-12-23T10:23:04.233Z,14.83
2017-12-23T10:25:32.492Z,10.57
2017-12-23T10:28:01.010Z,14.63
2017-12-23T10:30:29.371Z,11.43
2017-12-23T10:32:57.633Z,10.93
2017-12-23T10:35:25.916Z,7.80
2017-12-23T10:37:54.212Z,12.87
2017-12-23T10:40:22.695Z,9.23
2017-12-23T10:42:51.761Z,9.90
2017-12-23T10:45:20.031Z,8.70
2017-12-23T10:47:48.336Z,9.00
2017-12-23T10:50:16.583Z,9.07
2017-12-23T10:52:44.854Z,7.43
2017-12-23T10:55:13.901Z,10.93
2017-12-23T10:57:42.273Z,7.17
2017-12-23T11:00:10.754Z,5.70
2017-12-23T11:02:39.016Z,7.20
2017-12-23T11:05:07.276Z,9.33
2017-12-23T11:07:35.558Z,5.93
2017-12-23T11:10:03.808Z,8.00
2017-12-23T11:12:32.825Z,5.37
2017-12-23T11:15:01.096Z,5.97
2017-12-23T11:17:29.400Z,7.17
2017-12-23T11:19:57.687Z,6.40
2017-12-23T11:22:25.949Z,6.80
2017-12-23T11:24:54.237Z,7.53
2017-12-23T11:27:22.505Z,4.00
2017-12-23T11:29:50.756Z,3.73
2017-12-23T11:32:19.038Z,4.23
2017-12-23T11:34:47.300Z,2.77
2017-12-23T11:37:16.373Z,3.63
2017-12-23T11:39:44.640Z,8.37
2017-12-23T11:42:13.707Z,4.10
2017-12-23T11:44:41.982Z,2.00
2017-12-23T11:47:10.247Z,5.30
2017-12-23T11:49:38.511Z,6.60
2017-12-23T11:52:06.789Z,5.97
2017-12-23T11:54:35.102Z,3.37
2017-12-23T11:57:03.352Z,7.30
2017-12-23T11:59:31.760Z,4.60
2017-12-23T12:02:00.139Z,4.10
2017-12-23T12:04:28.392Z,4.10
2017-12-23T12:06:56.760Z,4.30
2017-12-23T12:09:25.022Z,4.67
2017-12-23T12:11:53.297Z,4.40
2017-12-23T12:14:22.342Z,3.60
2017-12-23T12:16:50.600Z,1.97
2017-12-23T12:19:18.856Z,3.43
2017-12-23T12:21:47.173Z,4.03
2017-12-23T12:24:15.449Z,3.23
2017-12-23T12:26:43.706Z,3.73
2017-12-23T12:29:11.984Z,3.03
2017-12-23T12:31:40.236Z,4.13
2017-12-23T12:34:08.856Z,6.57
2017-12-23T12:36:37.103Z,4.07
2017-12-23T12:39:05.413Z,4.47
2017-12-23T12:41:33.683Z,3.97
2017-12-23T12:44:01.935Z,4.83
2017-12-23T12:46:30.205Z,4.87
2017-12-23T12:48:58.449Z,4.77
2017-12-23T12:51:26.731Z,2.40
2017-12-23T12:53:55.083Z,3.80
2017-12-23T12:56:23.356Z,4.33
2017-12-23T12:58:51.641Z,4.13
2017-12-23T13:01:19.968Z,3.43
2017-12-23T13:03:48.285Z,3.57
2017-12-23T13:06:16.555Z,6.93
2017-12-23T13:08:44.842Z,4.00
2017-12-23T13:11:13.089Z,3.23
2017-12-23T13:13:41.362Z,4.97
2017-12-23T13:16:09.608Z,4.77
2017-12-23T13:18:38.676Z,3.50
2017-12-23T13:21:06.913Z,7.43
2017-12-23T13:23:35.163Z,9.60
2017-12-23T13:26:04.214Z,5.07
2017-12-23T13:28:32.468Z,7.07
2017-12-23T13:31:00.763Z,6.67
2017-12-23T13:33:29.020Z,7.40
2017-12-23T13:35:57.322Z,4.00
2017-12-23T13:38:25.592Z,5.20
2017-12-23T13:40:53.840Z,6.97
2017-12-23T13:43:22.117Z,9.60
2017-12-23T13:45:50.376Z,6.10
2017-12-23T13:48:19.407Z,6.70
2017-12-23T13:50:47.665Z,5.10
2017-12-23T13:53:15.979Z,7.27
2017-12-23T13:55:44.236Z,6.73
2017-12-23T13:58:12.484Z,6.80
2017-12-23T14:00:40.968Z,10.77
2017-12-23T14:03:10.705Z,6.10
2017-12-23T14:05:39.008Z,6.50
2017-12-23T14:08:07.285Z,9.93
2017-12-23T14:10:35.568Z,6.30
2017-12-23T14:13:05.354Z,6.30
2017-12-23T14:15:33.659Z,7.80
2017-12-23T14:18:01.956Z,4.53
2017-12-23T14:20:31.030Z,3.90
2017-12-23T14:22:59.408Z,10.87
2017-12-23T14:25:27.684Z,6.20
2017-12-23T14:27:56.002Z,9.70
2017-12-23T14:30:25.027Z,7.90
2017-12-23T14:32:53.333Z,7.60
2017-12-23T14:35:21.607Z,9.37
2017-12-23T14:37:49.881Z,6.57
2017-12-23T14:40:18.155Z,11.40
2017-12-23T14:42:46.444Z,8.63
2017-12-23T14:45:14.816Z,8.17
2017-12-23T14:47:43.056Z,7.37
2017-12-23T14:50:11.317Z,11.10
2017-12-23T14:52:40.436Z,7.20
2017-12-23T14:55:08.703Z,9.47
2017-12-23T14:57:36.994Z,13.00
2017-12-23T15:00:05.263Z,11.50
2017-12-23T15:02:34.371Z,9.87
2017-12-23T15:05:02.667Z,9.90
2017-12-23T15:07:30.919Z,11.00
2017-12-23T15:09:59.187Z,9.90
2017-12-23T15:12:27.454Z,12.20
2017-12-23T15:14:55.741Z,14.97
2017-12-23T15:17:23.995Z,17.27
2017-12-23T15:19:53.043Z,13.80
2017-12-23T15:22:21.321Z,14.93
2017-12-23T15:24:49.579Z,15.10
2017-12-23T15:27:17.917Z,21.80
2017-12-23T15:29:46.975Z,14.73
2017-12-23T15:32:15.272Z,19.33
2017-12-23T15:34:43.544Z,15.40
2017-12-23T15:37:11.900Z,16.60
2017-12-23T15:39:40.418Z,18.27
2017-12-23T15:42:08.691Z,14.97
2017-12-23T15:44:37.254Z,15.13
2017-12-23T15:47:05.501Z,18.60
2017-12-23T15:49:33.820Z,23.87
2017-12-23T15:52:02.119Z,18.40
2017-12-23T15:54:31.143Z,19.73
2017-12-23T15:56:59.425Z,22.27
2017-12-23T15:59:27.684Z,21.00
2017-12-23T16:01:55.968Z,21.70
2017-12-23T16:04:24.273Z,26.10
2017-12-23T16:06:52.547Z,29.53
2017-12-23T16:09:20.813Z,20.43
2017-12-23T16:11:49.072Z,24.63
2017-12-23T16:14:17.366Z,27.77
2017-12-23T16:16:45.629Z,27.27
2017-12-23T16:19:14.053Z,25.20
2017-12-23T16:21:42.299Z,20.67
2017-12-23T16:24:10.605Z,26.13
2017-12-23T16:26:38.865Z,31.27
2017-12-23T16:29:07.123Z,28.30
2017-12-23T16:31:36.125Z,27.43
2017-12-23T16:34:04.385Z,24.20
2017-12-23T16:36:32.708Z,24.93
2017-12-23T16:39:00.992Z,25.07
2017-12-23T16:41:30.792Z,27.97
2017-12-23T16:43:59.086Z,26.40
2017-12-23T16:46:28.119Z,27.57
2017-12-23T16:48:56.465Z,36.30
2017-12-23T16:51:24.828Z,28.97
2017-12-23T16:53:53.215Z,36.10
2017-12-23T16:56:21.465Z,29.30
2017-12-23T16:58:49.760Z,27.17
2017-12-23T17:01:18.037Z,28.30
2017-12-23T17:03:46.296Z,31.17
2017-12-23T17:06:14.573Z,36.27
2017-12-23T17:08:42.977Z,34.23
2017-12-23T17:11:11.266Z,25.50
2017-12-23T17:13:39.526Z,38.30
2017-12-23T17:16:07.790Z,34.20
2017-12-23T17:18:36.120Z,38.97
2017-12-23T17:21:04.463Z,35.47
2017-12-23T17:23:32.847Z,38.90
2017-12-23T17:26:01.138Z,35.77
2017-12-23T17:31:36.480Z,36.47
2017-12-23T17:34:04.886Z,34.53
2017-12-23T17:36:33.273Z,39.80
2017-12-23T17:39:02.294Z,37.17
2017-12-23T17:41:30.603Z,35.93
2017-12-23T17:43:58.855Z,33.13
2017-12-23T17:46:27.146Z,43.30
2017-12-23T17:48:55.454Z,31.57
2017-12-23T17:51:23.839Z,30.63
2017-12-23T17:53:52.112Z,36.90
2017-12-23T17:56:21.163Z,36.80
2017-12-23T17:58:49.498Z,33.90
2017-12-23T18:01:17.762Z,28.97
2017-12-23T18:03:46.060Z,28.50
2017-12-23T18:06:15.130Z,24.10
2017-12-23T18:08:45.039Z,36.77
2017-12-23T18:11:13.316Z,32.47
2017-12-23T18:13:41.812Z,36.87
2017-12-23T18:16:10.117Z,28.03
2017-12-23T18:18:39.153Z,40.60
2017-12-23T18:21:07.453Z,32.93
2017-12-23T18:23:35.728Z,32.20
2017-12-23T18:26:04.008Z,28.27
2017-12-23T18:28:33.059Z,26.73
2017-12-23T18:31:01.394Z,28.97
2017-12-23T18:33:29.644Z,29.33
2017-12-23T18:35:57.944Z,31.83
2017-12-23T18:38:26.472Z,29.00
2017-12-23T18:40:54.683Z,30.77
2017-12-23T18:43:23.173Z,31.20
2017-12-23T18:45:51.424Z,29.87
2017-12-23T18:48:19.740Z,29.27
2017-12-23T18:50:48.763Z,31.87
2017-12-23T18:53:17.068Z,26.07
2017-12-23T18:55:45.343Z,24.90
2017-12-23T18:58:13.760Z,22.30
2017-12-23T19:00:42.122Z,26.33
2017-12-23T19:03:10.384Z,24.47
2017-12-23T19:05:38.673Z,34.93
2017-12-23T19:08:06.927Z,25.53
2017-12-23T19:10:35.201Z,26.97
2017-12-23T19:13:03.524Z,29.23
2017-12-23T19:15:32.606Z,25.50
2017-12-23T19:18:00.880Z,24.50
2017-12-23T19:20:29.148Z,23.40
2017-12-23T19:22:57.429Z,26.20
2017-12-23T19:25:25.734Z,28.33
2017-12-23T19:27:54.121Z,31.90
2017-12-23T19:30:22.486Z,28.83
2017-12-23T19:32:50.940Z,25.93
2017-12-23T19:35:19.246Z,22.73
2017-12-23T19:37:47.511Z,25.47
2017-12-23T19:40:15.910Z,22.77
2017-12-23T19:42:45.020Z,26.30
2017-12-23T19:45:13.314Z,23.30
2017-12-23T19:47:42.349Z,21.93
2017-12-23T19:50:10.620Z,22.67
2017-12-23T19:52:38.909Z,20.67
2017-12-23T19:55:07.175Z,23.83
2017-12-23T19:57:35.460Z,23.30
2017-12-23T20:00:03.770Z,24.23
2017-12-23T20:02:32.030Z,27.57
2017-12-23T20:05:00.312Z,20.70
2017-12-23T20:07:28.703Z,24.27
2017-12-23T20:09:57.080Z,19.63
2017-12-23T20:12:26.176Z,22.57
2017-12-23T20:14:54.476Z,19.23
2017-12-23T20:17:23.544Z,24.57
2017-12-23T20:19:52.628Z,15.70
2017-12-23T20:22:20.923Z,19.70
2017-12-23T20:24:49.216Z,17.53
2017-12-23T20:27:17.509Z,20.10
2017-12-23T20:29:46.549Z,20.33
2017-12-23T20:32:15.463Z,21.00
2017-12-23T20:34:44.499Z,17.43
2017-12-23T20:37:12.830Z,21.70
2017-12-23T20:39:41.121Z,19.13
2017-12-23T20:42:09.389Z,18.77
2017-12-23T20:44:37.689Z,18.57
2017-12-23T20:47:06.733Z,16.90
2017-12-23T20:49:35.041Z,17.47
2017-12-23T20:52:04.838Z,14.73
2017-12-23T20:54:33.206Z,18.23
2017-12-23T20:57:01.604Z,22.40
2017-12-23T20:59:29.862Z,18.23
2017-12-23T21:01:58.148Z,19.37
2017-12-23T21:04:26.417Z,14.80
2017-12-23T21:06:54.692Z,17.73
2017-12-23T21:09:23.003Z,17.63
2017-12-23T21:11:52.109Z,18.20
2017-12-23T21:14:20.468Z,16.40
2017-12-23T21:16:48.729Z,15.70
2017-12-23T21:19:17.121Z,20.93
2017-12-23T21:21:45.391Z,18.77
2017-12-23T21:24:13.649Z,18.47
2017-12-23T21:26:41.923Z,16.40
2017-12-23T21:29:10.189Z,15.33
2017-12-23T21:31:38.476Z,13.43
2017-12-23T21:34:06.743Z,21.40
2017-12-23T21:36:35.053Z,13.37
2017-12-23T21:39:03.323Z,17.97
2017-12-23T21:41:31.583Z,17.20
2017-12-23T21:43:59.868Z,18.30
2017-12-23T21:46:28.136Z,16.27
2017-12-23T21:48:56.433Z,14.37
2017-12-23T21:51:24.698Z,17.80
2017-12-23T21:53:52.988Z,13.43
2017-12-23T21:56:21.244Z,14.60
2017-12-23T21:58:49.499Z,18.27
2017-12-23T22:01:18.595Z,14.63
2017-12-23T22:03:47.646Z,19.77
2017-12-23T22:06:15.934Z,14.80
2017-12-23T22:08:45.696Z,15.80
2017-12-23T22:11:14.004Z,20.40
2017-12-23T22:13:42.270Z,16.50
2017-12-23T22:16:10.546Z,14.50
2017-12-23T22:18:38.856Z,18.27
2017-12-23T22:21:07.255Z,15.20
2017-12-23T22:23:36.311Z,19.57
2017-12-23T22:26:04.610Z,15.77
2017-12-23T22:28:33.672Z,14.00
2017-12-23T22:31:01.944Z,18.30
2017-12-23T22:33:30.194Z,18.40
2017-12-23T22:35:58.503Z,15.83
2017-12-23T22:38:26.757Z,15.27
2017-12-23T22:40:55.177Z,16.50
2017-12-23T22:43:23.450Z,18.70
2017-12-23T22:45:51.757Z,16.50
2017-12-23T22:48:20.008Z,16.47
2017-12-23T22:50:48.260Z,19.57
2017-12-23T22:53:16.614Z,21.83
2017-12-23T22:55:45.661Z,17.83
2017-12-23T22:58:14.048Z,16.60
2017-12-23T23:00:47.953Z,16.33
2017-12-23T23:03:16.265Z,24.30
2017-12-23T23:05:45.310Z,18.07
2017-12-23T23:08:13.582Z,19.30
2017-12-23T23:10:41.877Z,22.60
2017-12-23T23:13:10.256Z,21.30
2017-12-23T23:15:38.525Z,22.30
2017-12-23T23:18:06.807Z,18.13
2017-12-23T23:20:35.175Z,19.13
2017-12-23T23:23:03.536Z,21.30
2017-12-23T23:25:31.846Z,19.60
2017-12-23T23:28:00.326Z,23.43
2017-12-23T23:30:28.597Z,23.97
2017-12-23T23:32:56.885Z,20.93
2017-12-23T23:35:25.289Z,17.53
2017-12-23T23:37:53.645Z,22.50
2017-12-23T23:40:21.896Z,21.07
2017-12-23T23:42:50.173Z,23.37
2017-12-23T23:45:18.450Z,19.73
2017-12-23T23:47:46.727Z,17.07
2017-12-23T23:50:15.126Z,25.00
2017-12-23T23:52:43.385Z,20.83
2017-12-23T23:55:11.697Z,24.53
2017-12-23T23:57:40.780Z,25.97
